SESA/SNC METAR and TAF weather

Enter ICAO airport designator
Station Type Date Time Source
SESA METAR 2019/10/23 14:00 UTC NOAA

SESA 231400Z 21008KT 9999 SCT016 BNK070 23/19 Q1014 RMK A2995


Station Type Date Time Source
SESA Decoded METAR 2019/10/23 14:00 UTC NOAA

Salinas / General Ulpiano Paez, Ecuador (SESA) 02-12S 080-59W 8M
Oct 23, 2019 - 10:00 AM EDT / 2019.10.23 1400 UTC
Wind: from the SSW (210 degrees) at 9 MPH (8 KT):0
Visibility: greater than 7 mile(s):0
Sky conditions: partly cloudy
Temperature: 73 F (23 C)
Dew Point: 66 F (19 C)
Relative Humidity: 78%
Pressure (altimeter): 29.94 in. Hg (1014 hPa)
ob: SESA 231400Z 21008KT 9999 SCT016 BNK070 23/19 Q1014 RMK A2995
cycle: 14

Station Type Date Time Source
SESA TAF UTC NOAA

Error!

Example: see airport list